Terminal Aerodrome Forecast
Issued by NWS

Home | Current Version | Previous Version | Text Only | Print | Product List | Glossary On
Versions: 1 2 3 4 5 6 7 8 9 10 11 12
000
FTUS42 KTAE 290500
TAFVLD
TAF
KVLD 290520Z 2906/3006 00000KT P6SM FEW250
      TEMPO 2910/2913 5SM BR
     FM291400 14005KT P6SM SCT050 SCT250
     FM292000 18006KT P6SM -SHRA VCTS SCT050CB SCT250
     FM300200 00000KT P6SM SCT250=

USA.gov is the U.S. government's official web portal to all federal, state and local government web resources and services.